createdAt,value
2018-05-03T00:00:26.734Z,25.63
2018-05-03T00:02:53.478Z,25.33
2018-05-03T00:05:20.218Z,25.20
2018-05-03T00:07:46.908Z,24.43
2018-05-03T00:10:13.611Z,25.20
2018-05-03T00:12:40.289Z,26.10
2018-05-03T00:15:06.897Z,24.30
2018-05-03T00:17:33.641Z,24.97
2018-05-03T00:20:00.391Z,26.30
2018-05-03T00:22:27.035Z,26.60
2018-05-03T00:24:53.774Z,26.73
2018-05-03T00:27:20.416Z,26.00
2018-05-03T00:29:47.170Z,26.03
2018-05-03T00:32:13.821Z,27.10
2018-05-03T00:34:40.452Z,25.77
2018-05-03T00:37:07.207Z,26.70
2018-05-03T00:39:33.941Z,27.37
2018-05-03T00:42:00.689Z,26.40
2018-05-03T00:44:27.231Z,27.77
2018-05-03T00:46:53.974Z,28.87
2018-05-03T00:49:20.724Z,28.97
2018-05-03T00:51:47.463Z,29.80
2018-05-03T00:54:26.189Z,33.03
2018-05-03T00:56:52.924Z,36.73
2018-05-03T00:59:19.674Z,37.30
2018-05-03T01:01:46.356Z,34.00
2018-05-03T01:04:13.070Z,32.00
2018-05-03T01:06:39.712Z,30.60
2018-05-03T01:09:06.571Z,29.37
2018-05-03T01:11:33.302Z,29.47
2018-05-03T01:14:00.052Z,30.33
2018-05-03T01:16:26.798Z,28.63
2018-05-03T01:18:53.544Z,28.10
2018-05-03T01:21:20.185Z,26.37
2018-05-03T01:23:46.927Z,28.30
2018-05-03T01:26:13.565Z,28.37
2018-05-03T01:28:40.213Z,28.23
2018-05-03T01:31:07.056Z,29.43
2018-05-03T01:33:33.805Z,32.63
2018-05-03T01:36:12.629Z,31.10
2018-05-03T01:38:39.368Z,31.33
2018-05-03T01:41:06.221Z,29.90
2018-05-03T01:43:32.973Z,27.63
2018-05-03T01:45:59.712Z,23.53
2018-05-03T01:48:26.450Z,22.53
2018-05-03T01:50:53.203Z,25.97
2018-05-03T01:53:19.942Z,28.70
2018-05-03T01:55:46.602Z,31.17
2018-05-03T01:58:13.335Z,32.63
2018-05-03T02:00:39.978Z,31.13
2018-05-03T02:03:06.577Z,30.43
2018-05-03T02:05:33.369Z,30.83
2018-05-03T02:08:00.110Z,30.40
2018-05-03T02:10:26.859Z,31.00
2018-05-03T02:12:53.602Z,29.20
2018-05-03T02:15:20.353Z,30.50
2018-05-03T02:17:47.001Z,30.87
2018-05-03T02:20:14.054Z,31.13
2018-05-03T02:22:40.797Z,29.57
2018-05-03T02:25:07.534Z,29.43
2018-05-03T02:27:34.287Z,28.43
2018-05-03T02:30:01.030Z,28.40
2018-05-03T02:32:27.776Z,25.93
2018-05-03T02:34:54.520Z,28.67
2018-05-03T02:37:21.369Z,28.10
2018-05-03T02:39:48.108Z,27.40
2018-05-03T02:42:14.861Z,27.47
2018-05-03T02:44:42.633Z,27.77
2018-05-03T02:47:09.374Z,28.70
2018-05-03T02:49:36.121Z,28.70
2018-05-03T02:52:02.862Z,27.93
2018-05-03T02:54:29.614Z,28.03
2018-05-03T02:57:08.639Z,28.40
2018-05-03T02:59:47.454Z,27.27
2018-05-03T03:05:31.708Z,30.20
2018-05-03T03:14:49.012Z,27.47
2018-05-03T03:17:33.771Z,28.97
2018-05-03T03:23:38.172Z,29.33
2018-05-03T03:29:30.915Z,33.90
2018-05-03T03:32:14.859Z,32.70
2018-05-03T03:34:41.696Z,30.33
2018-05-03T03:37:32.286Z,30.40
2018-05-03T03:40:17.051Z,31.33
2018-05-03T03:45:43.180Z,34.00
2018-05-03T03:48:09.935Z,33.43
2018-05-03T03:50:36.675Z,35.03
2018-05-03T03:53:03.436Z,34.70
2018-05-03T03:55:30.164Z,33.83
2018-05-03T03:57:56.913Z,34.93
2018-05-03T04:00:24.675Z,32.27
2018-05-03T04:02:51.427Z,31.80
2018-05-03T04:05:18.009Z,32.17
2018-05-03T04:07:44.719Z,32.57
2018-05-03T04:10:11.397Z,32.10
2018-05-03T04:12:38.099Z,35.73
2018-05-03T04:15:04.850Z,33.03
2018-05-03T04:20:45.614Z,31.37
2018-05-03T04:23:31.605Z,31.70
2018-05-03T04:26:01.926Z,30.47
2018-05-03T04:28:28.674Z,31.00
2018-05-03T04:30:55.417Z,30.93
2018-05-03T04:33:22.168Z,31.33
2018-05-03T04:35:48.846Z,32.93
2018-05-03T04:38:15.557Z,33.70
2018-05-03T04:40:42.199Z,34.37
2018-05-03T04:43:08.939Z,36.50
2018-05-03T04:45:35.690Z,34.93
2018-05-03T04:48:02.434Z,32.93
2018-05-03T04:50:29.221Z,35.67
2018-05-03T04:52:57.284Z,38.23
2018-05-03T04:55:23.897Z,38.33
2018-05-03T04:57:51.087Z,29.40
2018-05-03T05:00:17.796Z,29.03
2018-05-03T05:02:44.438Z,29.23
2018-05-03T05:05:11.087Z,29.13
2018-05-03T05:07:37.826Z,30.80
2018-05-03T05:10:04.482Z,28.83
2018-05-03T05:12:31.070Z,29.07
2018-05-03T05:14:57.863Z,29.43
2018-05-03T05:17:24.499Z,27.17
2018-05-03T05:19:51.253Z,28.60
2018-05-03T05:22:18.100Z,27.37
2018-05-03T05:24:44.842Z,27.87
2018-05-03T05:27:11.585Z,27.33
2018-05-03T05:29:38.337Z,26.57
2018-05-03T05:32:05.077Z,26.87
2018-05-03T05:34:31.825Z,29.40
2018-05-03T05:36:58.669Z,28.10
2018-05-03T05:39:25.361Z,24.80
2018-05-03T05:41:52.159Z,26.40
2018-05-03T05:44:18.920Z,25.90
2018-05-03T05:46:45.548Z,25.93
2018-05-03T05:49:12.303Z,24.63
2018-05-03T05:51:39.043Z,24.73
2018-05-03T05:54:05.793Z,25.77
2018-05-03T05:56:32.537Z,23.53
2018-05-03T05:58:59.382Z,25.40
2018-05-03T06:01:26.128Z,24.03
2018-05-03T06:03:52.881Z,25.30
2018-05-03T06:06:19.727Z,25.27
2018-05-03T06:08:46.466Z,26.37
2018-05-03T06:11:13.238Z,27.57
2018-05-03T06:13:39.966Z,26.30
2018-05-03T06:16:06.701Z,26.30
2018-05-03T06:18:33.451Z,25.80
2018-05-03T06:21:00.302Z,24.73
2018-05-03T06:23:26.941Z,24.53
2018-05-03T06:25:53.753Z,25.47
2018-05-03T06:28:20.434Z,24.03
2018-05-03T06:30:47.176Z,25.57
2018-05-03T06:33:13.929Z,24.50
2018-05-03T06:35:40.666Z,24.33
2018-05-03T06:38:07.415Z,24.40
2018-05-03T06:40:34.060Z,24.07
2018-05-03T06:43:00.858Z,24.10
2018-05-03T06:45:27.452Z,24.60
2018-05-03T06:47:54.149Z,23.77
2018-05-03T06:50:20.829Z,24.70
2018-05-03T06:52:48.303Z,24.67
2018-05-03T06:55:15.041Z,25.03
2018-05-03T06:57:41.796Z,24.40
2018-05-03T07:00:08.534Z,25.10
2018-05-03T07:02:36.316Z,25.57
2018-05-03T07:05:03.972Z,25.47
2018-05-03T07:07:31.736Z,26.20
2018-05-03T07:09:58.568Z,25.00
2018-05-03T07:12:25.158Z,27.17
2018-05-03T07:14:51.863Z,25.57
2018-05-03T07:17:18.621Z,25.23
2018-05-03T07:19:45.363Z,24.13
2018-05-03T07:22:12.120Z,26.10
2018-05-03T07:24:38.853Z,24.90
2018-05-03T07:27:06.531Z,24.97
2018-05-03T07:29:33.396Z,25.77
2018-05-03T07:32:00.016Z,24.87
2018-05-03T07:34:26.765Z,24.67
2018-05-03T07:36:53.508Z,24.50
2018-05-03T07:39:20.249Z,24.10
2018-05-03T07:41:46.940Z,24.63
2018-05-03T07:44:14.660Z,23.57
2018-05-03T07:46:41.408Z,22.30
2018-05-03T07:49:08.149Z,22.50
2018-05-03T07:51:34.904Z,23.57
2018-05-03T07:54:01.643Z,22.80
2018-05-03T07:56:28.383Z,23.63
2018-05-03T07:58:55.136Z,24.13
2018-05-03T08:01:21.874Z,22.43
2018-05-03T08:03:48.725Z,24.20
2018-05-03T08:06:15.475Z,22.43
2018-05-03T08:08:42.220Z,21.67
2018-05-03T08:11:09.067Z,22.27
2018-05-03T08:13:35.812Z,21.57
2018-05-03T08:16:02.563Z,20.47
2018-05-03T08:18:29.402Z,19.93
2018-05-03T08:20:56.152Z,21.40
2018-05-03T08:23:22.901Z,21.40
2018-05-03T08:25:49.744Z,18.80
2018-05-03T08:28:16.384Z,20.20
2018-05-03T08:30:43.135Z,19.67
2018-05-03T08:33:09.917Z,19.30
2018-05-03T08:35:36.628Z,21.70
2018-05-03T08:38:03.477Z,20.80
2018-05-03T08:40:30.220Z,20.63
2018-05-03T08:42:56.965Z,19.47
2018-05-03T08:45:23.710Z,19.23
2018-05-03T08:47:50.451Z,17.77
2018-05-03T08:50:17.201Z,18.37
2018-05-03T08:52:43.951Z,18.37
2018-05-03T08:55:10.795Z,18.17
2018-05-03T08:57:37.454Z,17.20
2018-05-03T09:00:04.283Z,19.43
2018-05-03T09:02:31.139Z,18.83
2018-05-03T09:04:57.875Z,16.90
2018-05-03T09:07:24.579Z,17.17
2018-05-03T09:09:51.367Z,18.00
2018-05-03T09:12:18.120Z,18.93
2018-05-03T09:14:44.866Z,17.03
2018-05-03T09:17:11.709Z,16.27
2018-05-03T09:19:38.453Z,14.53
2018-05-03T09:22:05.200Z,16.00
2018-05-03T09:24:32.971Z,14.97
2018-05-03T09:27:00.535Z,14.00
2018-05-03T09:29:27.177Z,14.40
2018-05-03T09:31:53.926Z,14.20
2018-05-03T09:34:20.667Z,13.30
2018-05-03T09:36:47.310Z,13.17
2018-05-03T09:39:14.147Z,13.53
2018-05-03T09:41:40.806Z,13.77
2018-05-03T09:44:07.441Z,14.03
2018-05-03T09:46:34.290Z,14.03
2018-05-03T09:49:01.042Z,13.17
2018-05-03T09:51:27.686Z,12.53
2018-05-03T09:53:54.422Z,13.90
2018-05-03T09:56:21.172Z,13.53
2018-05-03T09:58:47.811Z,12.00
2018-05-03T10:01:14.559Z,11.87
2018-05-03T10:03:41.304Z,12.43
2018-05-03T10:06:08.049Z,11.40
2018-05-03T10:08:34.796Z,11.97
2018-05-03T10:11:01.489Z,12.10
2018-05-03T10:13:28.192Z,10.70
2018-05-03T10:15:54.993Z,10.53
2018-05-03T10:18:21.569Z,10.80
2018-05-03T10:20:48.322Z,11.37
2018-05-03T10:23:15.176Z,11.13
2018-05-03T10:25:41.914Z,10.87
2018-05-03T10:28:08.658Z,10.40
2018-05-03T10:30:35.353Z,10.47
2018-05-03T10:33:02.055Z,10.33
2018-05-03T10:35:28.700Z,10.30
2018-05-03T10:37:55.535Z,10.50
2018-05-03T10:40:22.288Z,10.50
2018-05-03T10:42:49.031Z,10.53
2018-05-03T10:45:15.878Z,17.30
2018-05-03T10:47:42.519Z,16.73
2018-05-03T10:50:09.272Z,16.47
2018-05-03T10:52:36.010Z,18.50
2018-05-03T10:55:02.765Z,18.63
2018-05-03T10:57:29.508Z,17.30
2018-05-03T10:59:56.254Z,17.87
2018-05-03T11:02:22.997Z,17.03
2018-05-03T11:04:49.734Z,18.10
2018-05-03T11:07:16.490Z,17.07
2018-05-03T11:09:43.236Z,17.13
2018-05-03T11:12:09.919Z,17.77
2018-05-03T11:14:36.619Z,17.00
2018-05-03T11:17:03.370Z,17.47
2018-05-03T11:19:30.113Z,17.57
2018-05-03T11:21:56.960Z,17.83
2018-05-03T11:24:23.701Z,16.70
2018-05-03T11:26:50.426Z,18.40
2018-05-03T11:29:17.192Z,17.23
2018-05-03T11:31:43.945Z,16.80
2018-05-03T11:34:10.683Z,16.20
2018-05-03T11:36:37.541Z,17.23
2018-05-03T11:39:04.278Z,15.33
2018-05-03T11:41:31.034Z,15.23
2018-05-03T11:43:57.770Z,10.87
2018-05-03T11:46:24.519Z,11.20
2018-05-03T11:48:51.326Z,11.97
2018-05-03T11:51:18.011Z,12.80
2018-05-03T11:53:44.751Z,12.83
2018-05-03T11:56:11.501Z,12.90
2018-05-03T11:58:38.247Z,12.93
2018-05-03T12:01:04.996Z,12.83
2018-05-03T12:03:31.637Z,11.67
2018-05-03T12:05:58.387Z,12.23
2018-05-03T12:08:25.131Z,10.77
2018-05-03T12:10:51.871Z,10.85
2018-05-03T12:13:18.721Z,10.45
2018-05-03T12:15:45.468Z,9.93
2018-05-03T12:18:12.207Z,11.43
2018-05-03T12:20:38.951Z,12.53
2018-05-03T12:23:05.704Z,11.67
2018-05-03T12:25:32.442Z,12.50
2018-05-03T12:27:59.133Z,12.00
2018-05-03T12:30:25.840Z,11.83
2018-05-03T12:32:53.504Z,12.80
2018-05-03T12:35:20.252Z,12.43
2018-05-03T12:37:46.888Z,12.27
2018-05-03T12:40:13.536Z,12.27
2018-05-03T12:42:40.276Z,11.77
2018-05-03T12:45:08.871Z,12.77
2018-05-03T12:47:35.670Z,11.23
2018-05-03T12:50:02.459Z,11.03
2018-05-03T12:52:29.100Z,10.80
2018-05-03T12:54:55.851Z,10.70
2018-05-03T12:57:22.695Z,10.97
2018-05-03T12:59:49.443Z,9.77
2018-05-03T13:02:16.398Z,11.00
2018-05-03T13:04:43.248Z,10.57
2018-05-03T13:07:09.989Z,11.30
2018-05-03T13:09:36.738Z,10.37
2018-05-03T13:12:03.379Z,10.27
2018-05-03T13:14:30.060Z,10.07
2018-05-03T13:16:56.757Z,10.07
2018-05-03T13:19:23.710Z,11.02
2018-05-03T13:21:51.483Z,10.50
2018-05-03T13:24:18.123Z,10.57
2018-05-03T13:26:44.873Z,10.65
2018-05-03T13:29:11.617Z,9.50
2018-05-03T13:31:38.365Z,10.00
2018-05-03T13:34:05.204Z,9.33
2018-05-03T13:36:31.954Z,10.23
2018-05-03T13:38:58.697Z,11.23
2018-05-03T13:41:25.455Z,11.10
2018-05-03T13:43:52.298Z,10.90
2018-05-03T13:46:19.038Z,9.93
2018-05-03T13:48:45.894Z,10.50
2018-05-03T13:51:12.633Z,11.07
2018-05-03T13:53:39.381Z,9.73
2018-05-03T13:56:06.222Z,10.60
2018-05-03T13:58:32.872Z,11.17
2018-05-03T14:00:59.617Z,11.37
2018-05-03T14:03:26.469Z,10.63
2018-05-03T14:05:53.103Z,11.83
2018-05-03T14:08:19.856Z,12.00
2018-05-03T14:10:46.699Z,12.10
2018-05-03T14:13:13.450Z,12.77
2018-05-03T14:15:40.299Z,11.63
2018-05-03T14:18:07.050Z,13.03
2018-05-03T14:20:33.892Z,12.87
2018-05-03T14:23:00.533Z,13.13
2018-05-03T14:25:27.224Z,13.70
2018-05-03T14:27:53.924Z,13.47
2018-05-03T14:30:20.663Z,13.63
2018-05-03T14:32:47.414Z,13.53
2018-05-03T14:35:14.258Z,13.37
2018-05-03T14:37:40.909Z,12.73
2018-05-03T14:40:07.648Z,13.30
2018-05-03T14:42:34.396Z,13.10
2018-05-03T14:45:01.157Z,14.30
2018-05-03T14:47:28.095Z,14.17
2018-05-03T14:49:54.781Z,14.50
2018-05-03T14:52:21.492Z,13.93
2018-05-03T14:54:48.224Z,11.57
2018-05-03T14:57:14.989Z,15.03
2018-05-03T14:59:41.713Z,15.23
2018-05-03T15:02:08.568Z,15.83
2018-05-03T15:04:35.205Z,14.83
2018-05-03T15:07:01.848Z,15.67
2018-05-03T15:09:28.599Z,17.47
2018-05-03T15:11:55.450Z,25.87
2018-05-03T15:14:22.188Z,21.83
2018-05-03T15:16:49.040Z,7.57
2018-05-03T15:19:15.990Z,0.20
2018-05-03T15:21:42.732Z,0.10
2018-05-03T15:24:09.600Z,0.17
2018-05-03T15:26:36.331Z,0.20
2018-05-03T15:29:03.892Z,0.33
2018-05-03T15:31:30.835Z,0.20
2018-05-03T15:33:57.585Z,0.20
2018-05-03T15:36:24.435Z,0.10
2018-05-03T15:38:51.276Z,0.20
2018-05-03T15:41:18.035Z,0.20
2018-05-03T15:43:44.772Z,0.17
2018-05-03T15:46:11.519Z,0.30
2018-05-03T15:48:38.270Z,0.23
2018-05-03T15:51:05.118Z,0.13
2018-05-03T15:53:31.964Z,0.20
2018-05-03T15:55:58.704Z,0.20
2018-05-03T15:58:52.771Z,0.20
2018-05-03T16:01:19.516Z,0.20
2018-05-03T16:03:46.276Z,0.20
2018-05-03T16:06:13.004Z,0.20
2018-05-03T16:08:39.757Z,0.40
2018-05-03T16:11:06.506Z,0.17
2018-05-03T16:13:33.244Z,0.20
2018-05-03T16:16:00.091Z,0.20
2018-05-03T16:18:26.739Z,0.30
2018-05-03T16:20:53.580Z,0.40
2018-05-03T16:23:20.335Z,0.10
2018-05-03T16:25:46.920Z,0.37
2018-05-03T16:28:13.662Z,0.20
2018-05-03T16:30:40.368Z,0.30
2018-05-03T16:33:07.112Z,0.20
2018-05-03T16:35:33.957Z,0.10
2018-05-03T16:38:00.696Z,0.20
2018-05-03T16:40:27.498Z,0.20
2018-05-03T16:42:54.306Z,0.30
2018-05-03T16:45:21.036Z,0.20
2018-05-03T16:47:47.681Z,0.20
2018-05-03T16:50:14.432Z,0.67
2018-05-03T16:52:41.180Z,0.20
2018-05-03T16:55:07.939Z,0.10
2018-05-03T16:57:34.874Z,0.27
2018-05-03T17:00:02.156Z,0.20
2018-05-03T17:02:28.886Z,0.30
2018-05-03T17:04:55.783Z,2.70
2018-05-03T19:22:52.274Z,10.90
2018-05-03T19:25:20.772Z,10.73
2018-05-03T19:27:49.236Z,10.30
2018-05-03T19:30:17.764Z,10.33
2018-05-03T19:46:45.787Z,18.20
2018-05-03T19:49:14.325Z,18.90
2018-05-03T19:51:42.840Z,20.77
2018-05-03T19:54:11.435Z,21.03
2018-05-03T19:56:39.972Z,20.80
2018-05-03T19:59:10.195Z,21.80
2018-05-03T20:01:38.782Z,24.10
2018-05-03T20:04:07.481Z,24.33
2018-05-03T20:06:36.186Z,24.17
2018-05-03T20:11:39.926Z,25.40
2018-05-03T20:14:08.434Z,25.13
2018-05-03T20:16:36.982Z,25.67
2018-05-03T20:19:05.611Z,26.83
2018-05-03T20:21:34.186Z,26.73
2018-05-03T20:24:02.758Z,26.27
2018-05-03T20:26:31.393Z,27.03
2018-05-03T20:29:00.272Z,28.63
2018-05-03T20:31:28.796Z,28.13
2018-05-03T20:33:57.374Z,27.03
2018-05-03T20:36:25.990Z,28.70
2018-05-03T20:38:54.681Z,27.87
2018-05-03T20:43:59.282Z,29.97
2018-05-03T20:46:28.631Z,29.90
2018-05-03T20:51:33.604Z,31.43
2018-05-03T20:54:02.175Z,32.27
2018-05-03T20:59:09.788Z,30.63
2018-05-03T21:01:38.320Z,31.50
2018-05-03T21:04:06.928Z,29.20
2018-05-03T21:06:35.527Z,30.07
2018-05-03T21:09:04.411Z,30.70
2018-05-03T21:11:33.578Z,28.50
2018-05-03T21:14:02.241Z,29.90
2018-05-03T21:16:31.392Z,28.80
2018-05-03T21:18:59.975Z,28.33
2018-05-03T21:21:28.508Z,27.13
2018-05-03T21:23:57.057Z,25.83
2018-05-03T21:28:58.985Z,25.50
2018-05-03T21:34:03.559Z,25.13
2018-05-03T21:36:32.170Z,26.00
2018-05-03T21:39:00.836Z,25.00
2018-05-03T21:41:29.519Z,24.07
2018-05-03T21:43:58.457Z,23.47
2018-05-03T21:46:27.162Z,23.33
2018-05-03T21:48:55.773Z,22.47
2018-05-03T21:51:24.337Z,22.53
2018-05-03T21:53:52.877Z,21.93
2018-05-03T21:56:21.477Z,20.67
2018-05-03T21:58:50.162Z,20.50
2018-05-03T22:01:18.904Z,20.20
2018-05-03T22:06:20.265Z,17.63
2018-05-03T22:08:48.878Z,16.47
2018-05-03T22:11:17.424Z,16.70
2018-05-03T22:13:46.067Z,16.40
2018-05-03T22:16:14.993Z,14.20
2018-05-03T22:18:43.510Z,13.63
2018-05-03T22:23:44.837Z,11.20
2018-05-03T22:26:13.402Z,9.83
2018-05-03T22:31:17.654Z,10.30
2018-05-03T22:33:46.271Z,9.63
2018-05-03T22:36:14.790Z,10.43
2018-05-03T22:38:43.311Z,10.40
2018-05-03T22:41:11.794Z,10.10
2018-05-03T22:43:40.332Z,9.60
2018-05-03T22:46:08.859Z,9.60
2018-05-03T22:48:37.357Z,9.10
2018-05-03T22:51:05.999Z,9.40
2018-05-03T22:53:34.511Z,9.70
2018-05-03T22:58:35.776Z,10.10
2018-05-03T23:03:37.222Z,9.40
2018-05-03T23:06:05.753Z,9.17
2018-05-03T23:08:34.335Z,9.60
2018-05-03T23:11:03.009Z,9.60
2018-05-03T23:13:31.589Z,10.07
2018-05-03T23:16:00.216Z,10.30
2018-05-03T23:21:02.012Z,11.00
2018-05-03T23:23:30.532Z,11.13
2018-05-03T23:25:59.122Z,11.10
2018-05-03T23:28:27.809Z,11.93
2018-05-03T23:30:56.375Z,11.33
2018-05-03T23:33:24.942Z,11.30
2018-05-03T23:35:53.489Z,12.30
2018-05-03T23:40:54.714Z,12.07
2018-05-03T23:43:23.276Z,11.70
2018-05-03T23:45:51.799Z,12.93
2018-05-03T23:48:20.289Z,13.07
2018-05-03T23:50:48.837Z,12.97
2018-05-03T23:53:17.376Z,12.60
2018-05-03T23:55:45.952Z,12.67
2018-05-03T23:58:14.639Z,13.00
